Time;durP1;ratioP1;P1;durP2;ratioP2;P2;SDS_P1;SDS_P2;PMS_P1;PMS_P2;Temp;Humidity;BMP_temperature;BMP_pressure;BME280_temperature;BME280_humidity;BME280_pressure;Samples;Min_cycle;Max_cycle;Signal;HPM_P1;HPM_P2
2023/03/06 00:00:53;;;;;;;4.18;1.98;;;34.90;56.30;;;;;;5035134;28;20090;-60
2023/03/06 00:03:22;;;;;;;4.47;1.52;;;34.90;56.00;;;;;;5023167;28;20824;-60
2023/03/06 00:05:49;;;;;;;5.30;1.40;;;34.90;54.50;;;;;;5031273;28;20123;-61
2023/03/06 00:08:17;;;;;;;2.72;1.20;;;34.90;55.60;;;;;;5033611;28;20082;-60
2023/03/06 00:10:44;;;;;;;2.85;1.42;;;34.80;55.30;;;;;;5033755;28;20386;-61
2023/03/06 00:13:14;;;;;;;1.92;1.20;;;34.80;54.90;;;;;;5026035;28;20056;-60
2023/03/06 00:15:42;;;;;;;3.78;1.17;;;34.90;54.00;;;;;;5031567;28;20025;-61
2023/03/06 00:18:09;;;;;;;2.20;1.33;;;35.00;55.10;;;;;;5031834;28;20025;-62
2023/03/06 00:20:40;;;;;;;3.83;1.50;;;35.20;54.50;;;;;;5041665;28;20176;-60
2023/03/06 00:23:08;;;;;;;6.57;1.30;;;35.30;55.50;;;;;;5027823;28;20022;-61
2023/03/06 00:25:37;;;;;;;2.55;1.20;;;35.50;53.50;;;;;;5032140;28;20117;-60
2023/03/06 00:28:05;;;;;;;1.92;1.20;;;35.40;53.60;;;;;;5025729;28;20394;-61
2023/03/06 00:30:33;;;;;;;9.05;1.48;;;35.60;54.40;;;;;;5027281;28;20025;-61
2023/03/06 00:33:01;;;;;;;4.72;1.20;;;35.70;52.70;;;;;;5029205;28;20095;-61
2023/03/06 00:35:28;;;;;;;5.30;1.63;;;35.90;52.90;;;;;;5030109;28;20049;-60
2023/03/06 00:37:58;;;;;;;4.80;1.20;;;35.90;53.70;;;;;;5028425;28;20047;-63
2023/03/06 00:40:26;;;;;;;2.65;1.15;;;36.10;53.70;;;;;;5025442;28;20076;-61
2023/03/06 00:42:54;;;;;;;2.85;1.20;;;36.10;52.60;;;;;;5025441;28;20037;-60
2023/03/06 00:45:21;;;;;;;3.90;1.50;;;36.20;52.30;;;;;;5026220;28;20037;-60
2023/03/06 00:47:48;;;;;;;2.97;1.05;;;36.30;52.90;;;;;;5028271;28;20561;-61
2023/03/06 00:50:16;;;;;;;6.22;1.40;;;36.40;52.00;;;;;;5026775;28;20056;-61
2023/03/06 00:52:43;;;;;;;2.85;1.20;;;36.40;50.90;;;;;;5028449;28;20033;-60
2023/03/06 00:55:11;;;;;;;4.30;1.45;;;36.40;50.70;;;;;;5028561;28;20517;-60
2023/03/06 00:57:39;;;;;;;5.75;1.50;;;36.30;50.80;;;;;;5026788;28;20529;-60
2023/03/06 01:00:07;;;;;;;4.10;1.40;;;36.30;50.50;;;;;;5027413;28;20049;-61
2023/03/06 01:02:34;;;;;;;4.60;1.38;;;36.20;49.80;;;;;;5025246;28;20040;-60
2023/03/06 01:05:02;;;;;;;3.47;1.55;;;36.20;50.30;;;;;;5026215;28;20577;-62
2023/03/06 01:07:35;;;;;;;4.90;1.60;;;36.40;51.00;;;;;;5031455;28;20406;-61
2023/03/06 01:10:04;;;;;;;2.30;1.27;;;36.60;50.40;;;;;;5035293;28;20064;-61
2023/03/06 01:12:32;;;;;;;3.92;1.25;;;36.60;50.10;;;;;;5034629;28;20092;-63
2023/03/06 01:15:00;;;;;;;5.75;1.30;;;36.70;49.10;;;;;;5026386;28;20505;-61
2023/03/06 01:17:27;;;;;;;4.78;1.30;;;36.60;49.70;;;;;;5031818;28;20101;-62
2023/03/06 01:19:54;;;;;;;5.15;1.52;;;36.80;50.20;;;;;;5044840;28;20110;-61
2023/03/06 01:22:22;;;;;;;4.72;1.48;;;36.60;48.80;;;;;;5022875;28;20030;-60
2023/03/06 01:24:49;;;;;;;3.45;1.10;;;36.60;49.40;;;;;;5026947;28;20049;-60
2023/03/06 01:27:16;;;;;;;2.83;1.02;;;36.70;49.00;;;;;;5031749;28;20024;-61
2023/03/06 01:29:44;;;;;;;2.70;1.30;;;36.70;48.90;;;;;;5030331;28;20402;-61
2023/03/06 01:32:11;;;;;;;3.58;1.05;;;36.70;48.30;;;;;;5037799;28;20482;-62
2023/03/06 01:34:39;;;;;;;4.03;1.20;;;36.70;48.50;;;;;;5033363;28;20033;-60
2023/03/06 01:37:06;;;;;;;5.07;1.20;;;36.80;48.20;;;;;;5028637;28;20018;-60
2023/03/06 01:39:33;;;;;;;4.53;1.10;;;36.80;48.10;;;;;;5028917;28;20490;-61
2023/03/06 01:42:01;;;;;;;4.15;1.23;;;36.90;48.50;;;;;;5032309;28;20029;-61
2023/03/06 01:44:28;;;;;;;4.70;1.30;;;36.80;48.00;;;;;;5044755;28;20032;-60
2023/03/06 01:46:56;;;;;;;3.58;1.05;;;36.70;48.90;;;;;;5031411;28;20474;-60
2023/03/06 01:49:35;;;;;;;2.45;1.02;;;36.80;48.10;;;;;;5020101;28;20029;-60
2023/03/06 01:52:17;;;;;;;5.65;1.65;;;36.90;47.60;;;;;;5028015;28;20033;-64
2023/03/06 01:54:48;;;;;;;2.38;1.20;;;37.10;48.30;;;;;;5030554;28;20386;-61
2023/03/06 01:57:19;;;;;;;3.38;1.27;;;37.10;47.70;;;;;;5036673;28;20534;-61
2023/03/06 01:59:51;;;;;;;4.45;1.00;;;37.10;47.70;;;;;;5041551;28;20021;-62
2023/03/06 02:02:19;;;;;;;5.60;1.20;;;37.20;47.50;;;;;;5035781;28;20025;-63
2023/03/06 02:04:48;;;;;;;2.38;1.20;;;37.20;47.40;;;;;;5032875;28;20048;-61
2023/03/06 02:07:19;;;;;;;2.80;1.17;;;37.30;47.00;;;;;;5028046;28;20478;-62
2023/03/06 02:09:46;;;;;;;6.05;1.50;;;37.30;47.70;;;;;;5032182;28;20025;-62
2023/03/06 02:12:17;;;;;;;3.88;1.50;;;37.60;47.20;;;;;;5035363;28;20091;-62
2023/03/06 02:14:46;;;;;;;4.20;1.10;;;37.70;47.20;;;;;;5029735;28;20041;-62
2023/03/06 02:17:16;;;;;;;2.85;1.00;;;37.80;47.90;;;;;;5036698;28;20040;-62
2023/03/06 02:19:57;;;;;;;3.75;1.00;;;37.90;47.40;;;;;;5029926;28;20032;-62
2023/03/06 02:22:32;;;;;;;4.78;1.15;;;38.00;47.00;;;;;;5028717;28;20114;-62
2023/03/06 02:25:24;;;;;;;3.78;1.13;;;38.10;48.60;;;;;;5035922;28;20029;-63
2023/03/06 02:27:51;;;;;;;2.47;1.10;;;38.20;45.90;;;;;;5028672;28;20482;-62
2023/03/06 02:30:19;;;;;;;3.50;0.90;;;38.30;46.30;;;;;;5034168;28;20021;-62
2023/03/06 02:32:46;;;;;;;2.13;1.08;;;38.30;46.50;;;;;;5041465;28;20032;-62
2023/03/06 02:35:29;;;;;;;3.05;1.58;;;38.40;46.00;;;;;;5028584;28;20040;-61
2023/03/06 02:38:01;;;;;;;4.97;1.25;;;38.30;45.60;;;;;;5027121;28;20018;-60
2023/03/06 02:40:28;;;;;;;8.95;1.27;;;38.50;46.30;;;;;;5034154;28;20032;-60
2023/03/06 02:42:57;;;;;;;4.72;1.30;;;38.60;45.00;;;;;;5036212;28;20025;-60
2023/03/06 02:45:44;;;;;;;2.55;1.42;;;38.50;45.20;;;;;;5027722;28;20033;-61
2023/03/06 02:48:13;;;;;;;2.70;0.90;;;38.60;46.00;;;;;;5029307;28;20367;-60
2023/03/06 02:50:41;;;;;;;5.43;1.13;;;38.60;44.70;;;;;;5025298;28;20033;-61
2023/03/06 02:53:10;;;;;;;2.05;1.00;;;38.60;45.00;;;;;;5030790;28;20036;-62
2023/03/06 02:55:38;;;;;;;3.22;1.20;;;38.60;45.30;;;;;;5031448;28;20041;-61
2023/03/06 02:58:05;;;;;;;2.67;1.10;;;38.80;45.70;;;;;;5029017;28;20025;-61
2023/03/06 03:00:34;;;;;;;3.20;1.45;;;38.90;44.90;;;;;;5026451;28;20079;-61
2023/03/06 03:03:02;;;;;;;4.75;1.35;;;38.90;45.30;;;;;;5030542;28;20034;-61
2023/03/06 03:05:29;;;;;;;3.70;0.98;;;38.90;45.50;;;;;;5031787;28;20029;-61
2023/03/06 03:07:57;;;;;;;3.20;1.10;;;39.00;45.30;;;;;;5026522;28;20148;-61
2023/03/06 03:10:24;;;;;;;3.15;1.00;;;39.10;45.40;;;;;;5029000;28;20493;-60
2023/03/06 03:12:52;;;;;;;1.98;1.10;;;39.30;44.50;;;;;;5029263;28;20108;-62
2023/03/06 03:15:19;;;;;;;3.45;0.82;;;39.30;44.50;;;;;;5030803;28;20441;-61
2023/03/06 03:17:47;;;;;;;5.95;1.35;;;39.50;43.90;;;;;;5031876;28;20025;-62
2023/03/06 03:20:18;;;;;;;6.55;1.40;;;39.50;44.00;;;;;;5032201;28;20438;-61
2023/03/06 03:22:51;;;;;;;6.32;0.90;;;39.80;44.50;;;;;;5027196;28;20030;-61
2023/03/06 03:25:19;;;;;;;3.25;1.13;;;40.20;43.80;;;;;;5030427;28;20049;-63
2023/03/06 03:27:47;;;;;;;4.68;1.10;;;40.50;46.10;;;;;;5029568;28;20033;-61
2023/03/06 03:30:14;;;;;;;2.33;1.10;;;40.50;44.00;;;;;;5028069;28;20045;-62
2023/03/06 03:32:42;;;;;;;2.35;0.98;;;40.70;43.90;;;;;;5025829;28;20071;-61
2023/03/06 03:35:11;;;;;;;2.97;1.10;;;40.80;43.30;;;;;;5027560;28;20034;-61
2023/03/06 03:37:38;;;;;;;3.75;1.48;;;40.80;42.60;;;;;;5031921;28;20025;-62
2023/03/06 03:40:06;;;;;;;8.88;1.15;;;40.70;42.10;;;;;;5043485;28;20029;-62
2023/03/06 03:42:34;;;;;;;1.27;0.70;;;40.70;39.30;;;;;;5025488;28;20022;-61
2023/03/06 03:45:02;;;;;;;0.90;0.80;;;40.70;37.90;;;;;;5029045;28;20037;-62
2023/03/06 03:47:29;;;;;;;2.22;1.05;;;40.60;36.20;;;;;;5037408;28;20475;-61
2023/03/06 03:49:57;;;;;;;2.40;1.00;;;40.50;37.80;;;;;;5028601;28;20030;-60
2023/03/06 03:52:24;;;;;;;1.65;1.10;;;40.60;37.10;;;;;;5030512;28;20385;-61
2023/03/06 03:54:51;;;;;;;3.45;1.10;;;40.40;36.10;;;;;;5027609;28;20047;-61
2023/03/06 03:57:19;;;;;;;3.95;0.85;;;40.40;36.80;;;;;;5025911;28;20026;-61
2023/03/06 03:59:46;;;;;;;1.42;1.10;;;40.50;36.50;;;;;;5029381;28;20029;-61
2023/03/06 04:02:14;;;;;;;2.35;0.88;;;40.60;36.50;;;;;;5030967;28;20030;-61
2023/03/06 04:04:41;;;;;;;2.47;0.90;;;40.60;36.40;;;;;;5029836;28;20041;-61
2023/03/06 04:07:09;;;;;;;3.65;0.90;;;40.50;36.00;;;;;;5029706;28;20112;-61
2023/03/06 04:09:36;;;;;;;2.58;0.80;;;40.10;35.60;;;;;;5027221;28;20398;-61
2023/03/06 04:12:04;;;;;;;3.85;0.70;;;39.70;36.40;;;;;;5029018;28;20068;-61
2023/03/06 04:14:32;;;;;;;2.10;1.15;;;39.70;37.60;;;;;;5027614;28;20029;-61
2023/03/06 04:16:59;;;;;;;2.65;0.80;;;39.90;36.60;;;;;;5024711;28;20394;-62
2023/03/06 04:19:27;;;;;;;3.50;0.90;;;40.10;37.10;;;;;;5024969;28;20067;-61
2023/03/06 04:21:54;;;;;;;4.97;0.70;;;40.40;36.40;;;;;;5021321;28;20053;-61
2023/03/06 04:24:21;;;;;;;2.75;0.60;;;40.50;36.10;;;;;;5026151;28;20060;-61
2023/03/06 04:26:49;;;;;;;2.88;0.60;;;40.50;36.10;;;;;;5028765;28;20976;-61
2023/03/06 04:29:16;;;;;;;2.15;0.90;;;40.30;37.20;;;;;;5024357;28;20056;-62
2023/03/06 04:31:43;;;;;;;1.95;0.70;;;40.20;36.70;;;;;;5023490;28;20115;-61
2023/03/06 04:34:11;;;;;;;4.15;0.82;;;40.20;36.40;;;;;;5026011;28;20030;-61
2023/03/06 04:36:43;;;;;;;2.97;0.60;;;40.20;37.10;;;;;;5027759;28;20033;-62
2023/03/06 04:39:14;;;;;;;2.28;0.93;;;40.30;37.20;;;;;;5033766;28;20037;-61
2023/03/06 04:41:42;;;;;;;1.17;0.63;;;39.90;35.70;;;;;;5026676;28;20044;-61
2023/03/06 04:44:10;;;;;;;1.92;0.63;;;39.90;36.20;;;;;;5031067;28;20022;-61
2023/03/06 04:46:37;;;;;;;1.92;0.70;;;40.00;35.90;;;;;;5038730;28;20410;-61
2023/03/06 04:49:04;;;;;;;5.15;0.60;;;40.00;35.80;;;;;;5030409;28;20033;-61
2023/03/06 04:51:32;;;;;;;3.67;0.90;;;40.10;35.50;;;;;;5032239;28;20382;-63
2023/03/06 04:53:59;;;;;;;1.55;0.50;;;40.10;35.10;;;;;;5028837;28;20021;-62
2023/03/06 04:56:27;;;;;;;1.05;0.50;;;40.10;35.00;;;;;;5045342;28;20076;-61
2023/03/06 04:58:54;;;;;;;3.72;0.80;;;40.10;35.50;;;;;;5026595;28;20501;-62
2023/03/06 05:01:22;;;;;;;4.28;0.68;;;40.10;35.50;;;;;;5041071;28;20245;-61
2023/03/06 05:03:49;;;;;;;2.30;0.80;;;40.10;35.10;;;;;;5037788;28;20458;-62
2023/03/06 05:06:17;;;;;;;2.42;0.57;;;39.90;34.80;;;;;;5041448;28;20057;-61
2023/03/06 05:08:44;;;;;;;7.47;0.88;;;39.60;34.60;;;;;;5042585;28;20036;-61
2023/03/06 05:11:12;;;;;;;3.97;0.60;;;39.20;33.80;;;;;;5022161;28;20053;-61
2023/03/06 05:13:39;;;;;;;2.70;0.70;;;38.90;34.50;;;;;;5030047;28;20036;-61
2023/03/06 05:16:07;;;;;;;3.00;0.75;;;38.60;34.30;;;;;;5023949;28;20051;-61
2023/03/06 05:18:36;;;;;;;2.70;0.60;;;38.40;34.90;;;;;;5026970;28;20024;-62
2023/03/06 05:21:04;;;;;;;2.30;0.88;;;38.30;35.80;;;;;;5026796;28;20053;-63
2023/03/06 05:23:33;;;;;;;3.95;0.65;;;38.40;35.80;;;;;;5027170;28;20017;-63
2023/03/06 05:26:04;;;;;;;2.30;0.80;;;38.50;35.00;;;;;;5031155;28;20033;-61
2023/03/06 05:28:31;;;;;;;1.42;0.55;;;38.50;36.10;;;;;;5023973;28;20022;-61
2023/03/06 05:30:58;;;;;;;8.85;0.68;;;38.50;35.10;;;;;;5028345;28;20033;-63
2023/03/06 05:33:26;;;;;;;1.38;0.70;;;38.50;35.60;;;;;;5030000;28;20028;-62
2023/03/06 05:35:53;;;;;;;1.67;1.25;;;38.50;35.90;;;;;;5030275;28;20041;-61
2023/03/06 05:38:21;;;;;;;3.05;0.50;;;38.70;35.40;;;;;;5032421;28;20018;-62
2023/03/06 05:40:49;;;;;;;3.47;0.60;;;38.70;35.00;;;;;;5029573;28;20478;-62
2023/03/06 05:43:16;;;;;;;1.75;0.68;;;38.80;34.20;;;;;;5034491;28;20568;-61
2023/03/06 05:45:44;;;;;;;2.53;0.93;;;38.70;35.50;;;;;;5031155;28;20026;-62
2023/03/06 05:48:13;;;;;;;1.40;0.40;;;38.80;34.60;;;;;;5030147;28;20056;-62
2023/03/06 05:50:40;;;;;;;5.00;0.70;;;38.70;33.70;;;;;;5028669;28;20120;-61
2023/03/06 05:53:07;;;;;;;2.20;0.55;;;38.70;34.00;;;;;;5037006;28;20855;-61
2023/03/06 05:55:35;;;;;;;3.35;0.93;;;38.70;35.00;;;;;;5025674;28;20573;-62
2023/03/06 05:58:02;;;;;;;5.32;0.60;;;38.70;34.60;;;;;;5044958;28;20509;-62
2023/03/06 06:00:30;;;;;;;2.88;0.50;;;38.60;34.50;;;;;;5029857;28;20072;-61
2023/03/06 06:03:01;;;;;;;4.55;0.70;;;38.50;33.80;;;;;;5028620;28;20025;-61
2023/03/06 06:05:28;;;;;;;2.00;0.65;;;38.40;33.90;;;;;;5025631;28;20793;-63
2023/03/06 06:07:55;;;;;;;1.67;0.40;;;38.40;34.70;;;;;;5037917;28;20321;-62
2023/03/06 06:10:23;;;;;;;1.92;0.57;;;38.40;34.60;;;;;;5036658;28;20398;-62
2023/03/06 06:12:50;;;;;;;0.80;0.40;;;38.10;34.40;;;;;;5026364;28;20386;-62
2023/03/06 06:15:18;;;;;;;2.17;1.00;;;37.80;34.00;;;;;;5023140;28;20153;-63
2023/03/06 06:17:45;;;;;;;0.95;0.45;;;37.60;34.60;;;;;;5025523;28;20528;-62
2023/03/06 06:20:13;;;;;;;3.85;0.75;;;37.70;34.20;;;;;;5034220;28;20116;-62
2023/03/06 06:22:41;;;;;;;2.60;0.70;;;37.70;34.50;;;;;;5031302;28;20037;-62
2023/03/06 06:25:08;;;;;;;4.22;0.60;;;37.70;35.10;;;;;;5028453;28;20025;-62
2023/03/06 06:27:36;;;;;;;4.78;0.80;;;37.80;33.80;;;;;;5029967;28;20029;-62
2023/03/06 06:30:05;;;;;;;1.67;0.60;;;37.80;34.40;;;;;;5026614;28;20541;-62
2023/03/06 06:32:32;;;;;;;1.38;0.60;;;37.80;33.40;;;;;;5028322;28;20040;-62
2023/03/06 06:35:00;;;;;;;1.38;0.40;;;37.70;33.10;;;;;;5041106;28;20116;-63
2023/03/06 06:37:27;;;;;;;1.33;0.38;;;37.60;33.20;;;;;;5035874;28;20059;-62
2023/03/06 06:39:55;;;;;;;1.50;0.52;;;37.40;33.60;;;;;;5028060;28;20033;-62
2023/03/06 06:42:22;;;;;;;2.50;0.50;;;37.40;33.90;;;;;;5010585;28;20100;-62
2023/03/06 06:44:50;;;;;;;0.95;0.40;;;37.40;34.20;;;;;;5030429;28;20033;-62
2023/03/06 06:47:17;;;;;;;1.08;0.55;;;37.40;34.50;;;;;;5029045;28;20041;-62
2023/03/06 06:49:48;;;;;;;1.17;0.40;;;37.40;34.90;;;;;;5034971;28;20028;-62
2023/03/06 06:52:17;;;;;;;2.92;0.60;;;37.40;35.00;;;;;;5026222;28;20124;-63
2023/03/06 06:54:45;;;;;;;3.85;0.68;;;37.40;34.10;;;;;;5028638;28;20045;-63
2023/03/06 06:57:12;;;;;;;2.75;0.65;;;37.30;34.50;;;;;;5027455;28;20025;-62
2023/03/06 06:59:40;;;;;;;1.98;0.60;;;37.20;34.60;;;;;;5023880;28;20401;-61
2023/03/06 07:02:09;;;;;;;4.85;0.65;;;37.00;34.70;;;;;;5027274;28;20022;-62
2023/03/06 07:04:38;;;;;;;1.33;0.50;;;36.80;34.60;;;;;;5028249;28;20099;-62
2023/03/06 07:07:05;;;;;;;1.40;0.68;;;36.70;34.60;;;;;;5027510;28;20025;-63
2023/03/06 07:09:33;;;;;;;2.40;0.52;;;36.70;34.90;;;;;;5027139;28;20025;-62
2023/03/06 07:12:00;;;;;;;1.02;0.50;;;36.80;34.80;;;;;;5029337;28;20026;-63
2023/03/06 07:14:28;;;;;;;2.25;0.70;;;36.90;35.20;;;;;;5028690;28;20017;-62
2023/03/06 07:16:55;;;;;;;3.40;0.65;;;37.00;35.20;;;;;;5026504;28;20041;-62
2023/03/06 07:19:22;;;;;;;3.58;0.60;;;37.00;34.40;;;;;;5025720;28;20691;-62
2023/03/06 07:21:50;;;;;;;2.30;0.70;;;36.90;34.70;;;;;;5026874;28;20615;-61
2023/03/06 07:24:17;;;;;;;1.52;0.55;;;36.90;34.50;;;;;;5027366;28;20033;-62
2023/03/06 07:26:48;;;;;;;3.92;0.80;;;36.90;34.50;;;;;;5026300;28;20029;-63
2023/03/06 07:29:16;;;;;;;3.70;0.57;;;36.80;35.20;;;;;;5024015;28;20108;-61
2023/03/06 07:31:43;;;;;;;0.98;0.40;;;36.70;34.70;;;;;;5023830;28;20041;-62
2023/03/06 07:34:13;;;;;;;0.68;0.40;;;36.60;34.30;;;;;;5030613;28;20037;-62
2023/03/06 07:36:41;;;;;;;2.88;0.60;;;36.50;34.80;;;;;;5026472;28;20037;-61
2023/03/06 07:39:09;;;;;;;2.28;0.65;;;36.40;34.00;;;;;;5016116;28;20030;-60
2023/03/06 07:41:37;;;;;;;4.47;0.55;;;36.30;34.00;;;;;;5019571;28;20036;-60
2023/03/06 07:44:04;;;;;;;0.82;0.30;;;36.30;34.40;;;;;;5022083;28;20053;-60
2023/03/06 07:46:31;;;;;;;0.98;0.40;;;36.10;34.70;;;;;;5028768;28;20053;-61
2023/03/06 07:48:59;;;;;;;1.48;0.50;;;36.00;34.70;;;;;;5028147;28;20162;-59
2023/03/06 07:51:26;;;;;;;3.03;0.47;;;35.80;34.90;;;;;;5030781;28;20017;-61
2023/03/06 07:53:54;;;;;;;0.63;0.50;;;35.70;35.40;;;;;;5016894;28;20049;-60
2023/03/06 07:56:21;;;;;;;3.75;0.70;;;35.50;35.30;;;;;;5029759;28;20721;-60
2023/03/06 07:58:49;;;;;;;3.63;0.60;;;35.40;35.50;;;;;;5025635;28;20021;-60
2023/03/06 08:01:19;;;;;;;5.93;0.65;;;35.30;35.70;;;;;;5025093;28;20072;-60
2023/03/06 08:03:48;;;;;;;2.67;0.73;;;35.20;35.50;;;;;;5022956;28;20049;-60
2023/03/06 08:06:21;;;;;;;0.47;0.40;;;35.10;35.60;;;;;;5028519;28;20371;-60
2023/03/06 08:08:50;;;;;;;2.20;0.40;;;34.90;36.00;;;;;;5024381;28;20120;-61
2023/03/06 08:11:19;;;;;;;1.77;0.73;;;34.80;36.00;;;;;;5026209;28;20877;-60
2023/03/06 08:13:47;;;;;;;1.27;0.60;;;34.60;36.50;;;;;;5022754;28;20018;-59
2023/03/06 08:16:16;;;;;;;0.93;0.60;;;34.50;36.40;;;;;;5013146;28;20042;-59
2023/03/06 08:18:43;;;;;;;1.33;0.70;;;34.50;36.70;;;;;;5019513;28;20108;-61
2023/03/06 08:21:14;;;;;;;0.60;0.40;;;34.30;37.40;;;;;;5022913;28;20059;-63
2023/03/06 08:23:42;;;;;;;1.50;0.60;;;34.10;37.20;;;;;;5025228;28;20714;-61
2023/03/06 08:26:18;;;;;;;2.65;0.52;;;34.00;37.30;;;;;;5024707;28;20029;-60
2023/03/06 08:28:46;;;;;;;1.98;0.90;;;33.90;37.50;;;;;;5019785;28;20037;-62
2023/03/06 08:31:24;;;;;;;0.95;0.50;;;33.80;37.60;;;;;;5022023;28;20030;-62
2023/03/06 08:33:52;;;;;;;4.30;0.70;;;33.60;37.80;;;;;;5026590;28;20025;-61
2023/03/06 08:36:20;;;;;;;1.08;0.40;;;33.50;38.30;;;;;;5030066;28;20069;-61
2023/03/06 08:38:47;;;;;;;0.75;0.40;;;33.30;38.20;;;;;;5035109;28;20034;-61
2023/03/06 08:41:15;;;;;;;2.70;0.63;;;33.10;38.40;;;;;;5023839;28;20398;-61
2023/03/06 08:43:43;;;;;;;3.40;0.60;;;32.90;38.80;;;;;;5021684;28;20032;-61
2023/03/06 08:46:11;;;;;;;1.77;0.60;;;32.80;39.00;;;;;;5024179;28;20083;-61
2023/03/06 08:48:39;;;;;;;1.35;0.50;;;32.60;39.10;;;;;;5027205;28;20086;-61
2023/03/06 08:51:09;;;;;;;3.58;0.70;;;32.40;39.60;;;;;;5024208;28;20082;-61
2023/03/06 08:53:36;;;;;;;5.75;1.15;;;32.20;39.70;;;;;;5019469;28;20029;-62
2023/03/06 08:56:04;;;;;;;1.48;0.45;;;32.00;40.10;;;;;;5029693;28;20034;-61
2023/03/06 08:58:32;;;;;;;2.58;0.70;;;31.90;40.20;;;;;;5026412;28;20095;-62
2023/03/06 09:00:59;;;;;;;2.95;0.73;;;31.70;40.40;;;;;;5015012;28;20021;-60
2023/03/06 09:03:26;;;;;;;2.70;0.60;;;31.50;40.60;;;;;;5022907;28;20562;-60
2023/03/06 09:05:54;;;;;;;1.35;0.60;;;31.40;40.60;;;;;;5027098;28;20029;-61
2023/03/06 09:08:21;;;;;;;1.90;0.70;;;31.20;40.60;;;;;;5023967;28;20029;-60
2023/03/06 09:10:49;;;;;;;2.42;0.50;;;31.00;41.00;;;;;;5031132;28;20029;-61
2023/03/06 09:13:17;;;;;;;4.18;0.73;;;30.90;41.20;;;;;;5025935;28;20075;-61
2023/03/06 09:15:44;;;;;;;1.52;0.60;;;30.80;41.80;;;;;;5027360;28;20437;-61
2023/03/06 09:18:11;;;;;;;1.63;0.60;;;30.70;42.00;;;;;;5018751;28;20029;-61
2023/03/06 09:20:39;;;;;;;1.92;0.75;;;30.60;41.80;;;;;;5026077;28;20079;-61
2023/03/06 09:23:06;;;;;;;3.55;0.63;;;30.60;42.10;;;;;;5016027;28;20026;-60
2023/03/06 09:25:34;;;;;;;1.40;0.60;;;30.50;42.10;;;;;;5011122;28;20032;-61
2023/03/06 09:28:01;;;;;;;3.70;0.70;;;30.50;42.20;;;;;;5027571;28;20017;-62
2023/03/06 09:30:29;;;;;;;4.43;0.70;;;30.40;42.30;;;;;;5021536;28;20121;-62
2023/03/06 09:32:56;;;;;;;1.85;0.60;;;30.30;42.30;;;;;;5016092;28;20104;-61
2023/03/06 09:35:24;;;;;;;0.98;0.55;;;30.20;42.80;;;;;;5017269;28;20045;-61
2023/03/06 09:37:51;;;;;;;2.53;1.10;;;30.10;42.80;;;;;;5020534;28;20083;-61
2023/03/06 09:40:53;;;;;;;2.65;1.15;;;30.00;42.90;;;;;;5017316;28;20061;-61
2023/03/06 09:43:28;;;;;;;2.60;0.70;;;29.90;43.70;;;;;;5022921;28;20026;-61
2023/03/06 09:45:57;;;;;;;2.58;0.75;;;29.70;43.20;;;;;;5026087;28;20033;-62
2023/03/06 09:48:44;;;;;;;2.83;0.85;;;29.50;43.60;;;;;;5017285;28;20498;-61
2023/03/06 09:51:16;;;;;;;3.28;0.70;;;29.30;43.90;;;;;;5029047;28;20429;-63
2023/03/06 09:53:56;;;;;;;2.55;0.70;;;29.10;44.00;;;;;;5016400;28;20383;-62
2023/03/06 09:56:30;;;;;;;12.50;1.67;;;29.00;44.70;;;;;;5020309;28;20033;-61
2023/03/06 09:59:23;;;;;;;24.33;4.82;;;28.90;44.20;;;;;;5024556;28;20482;-64
2023/03/06 10:02:13;;;;;;;36.20;4.45;;;29.00;44.40;;;;;;5024879;28;20049;-62
2023/03/06 10:04:43;;;;;;;23.23;4.57;;;29.00;45.00;;;;;;5021741;28;20562;-60
2023/03/06 10:07:20;;;;;;;42.15;4.70;;;29.10;44.80;;;;;;5021968;28;20036;-60
2023/03/06 10:10:06;;;;;;;26.63;4.22;;;29.00;44.50;;;;;;5030023;28;20055;-61
2023/03/06 10:12:40;;;;;;;21.13;3.58;;;28.90;44.70;;;;;;5016631;28;20045;-61
2023/03/06 10:15:14;;;;;;;13.13;2.83;;;28.90;44.90;;;;;;5024132;28;20045;-62
2023/03/06 10:17:43;;;;;;;24.65;2.25;;;28.90;45.60;;;;;;5014425;28;20033;-60
2023/03/06 10:20:25;;;;;;;12.45;1.25;;;29.10;45.00;;;;;;5024211;28;20032;-62
2023/03/06 10:23:26;;;;;;;5.53;1.58;;;29.00;45.00;;;;;;5028349;28;20034;-62
2023/03/06 10:26:12;;;;;;;8.43;1.40;;;28.90;45.90;;;;;;5030107;28;20025;-60
2023/03/06 10:28:47;;;;;;;2.83;1.20;;;28.80;47.00;;;;;;5035954;28;20036;-61
2023/03/06 10:31:26;;;;;;;3.00;1.10;;;28.80;45.70;;;;;;5023975;28;20040;-61
2023/03/06 10:34:10;;;;;;;6.53;1.10;;;28.80;46.50;;;;;;5032351;28;20520;-61
2023/03/06 10:36:37;;;;;;;4.53;1.10;;;28.70;47.60;;;;;;5021262;28;20038;-66
2023/03/06 10:39:14;;;;;;;2.92;1.05;;;28.50;48.80;;;;;;5026522;28;20079;-62
2023/03/06 10:41:41;;;;;;;3.80;1.25;;;28.50;50.20;;;;;;5026977;28;20025;-62
2023/03/06 10:44:08;;;;;;;7.65;1.17;;;28.40;51.20;;;;;;5036501;28;20394;-62
2023/03/06 10:46:44;;;;;;;2.63;1.10;;;28.30;51.20;;;;;;5046564;28;20048;-62
2023/03/06 10:49:34;;;;;;;3.60;1.50;;;28.20;51.90;;;;;;5033251;28;20504;-62
2023/03/06 10:52:06;;;;;;;7.40;2.30;;;28.10;52.60;;;;;;5031114;28;20034;-62
2023/03/06 10:54:39;;;;;;;7.45;1.40;;;28.00;54.70;;;;;;5037057;28;20378;-61
2023/03/06 10:57:31;;;;;;;5.82;1.60;;;28.00;55.40;;;;;;5034652;28;20051;-61
2023/03/06 10:59:58;;;;;;;8.15;1.95;;;28.00;56.10;;;;;;5029889;28;20417;-61
2023/03/06 11:02:27;;;;;;;7.35;2.08;;;27.90;56.20;;;;;;5027750;28;20101;-62
2023/03/06 11:04:57;;;;;;;9.38;2.53;;;27.90;56.90;;;;;;5030979;28;20033;-61
2023/03/06 11:07:27;;;;;;;6.82;1.83;;;27.80;57.20;;;;;;5024776;28;20033;-60
2023/03/06 11:09:58;;;;;;;6.30;2.50;;;27.70;57.70;;;;;;5028284;28;20402;-61
2023/03/06 11:12:37;;;;;;;6.05;1.60;;;27.60;58.00;;;;;;5036057;28;20025;-61
2023/03/06 11:15:07;;;;;;;7.55;2.63;;;27.50;58.90;;;;;;5040480;28;20355;-61
2023/03/06 11:17:38;;;;;;;8.98;1.65;;;27.30;59.30;;;;;;5027675;28;20025;-61
2023/03/06 11:20:22;;;;;;;9.05;2.25;;;27.10;59.80;;;;;;5022751;28;20022;-61
2023/03/06 11:22:51;;;;;;;4.10;1.65;;;27.00;61.20;;;;;;5025201;28;20045;-61
2023/03/06 11:25:21;;;;;;;8.63;2.20;;;27.20;61.10;;;;;;5028313;28;20040;-60
2023/03/06 11:28:15;;;;;;;12.75;2.40;;;27.50;61.10;;;;;;5033014;28;20037;-60
2023/03/06 11:30:46;;;;;;;8.15;2.40;;;27.80;60.90;;;;;;5015839;28;20474;-60
2023/03/06 11:33:33;;;;;;;6.57;2.08;;;28.00;60.80;;;;;;5036121;28;20081;-64
2023/03/06 11:36:19;;;;;;;9.13;2.42;;;27.90;61.20;;;;;;5034990;28;20474;-62
2023/03/06 11:38:53;;;;;;;6.75;1.98;;;27.90;61.30;;;;;;5023865;28;20033;-60
2023/03/06 11:41:42;;;;;;;7.40;1.95;;;27.90;61.70;;;;;;5023448;28;20101;-60
2023/03/06 11:44:43;;;;;;;7.00;2.13;;;28.00;61.90;;;;;;5025720;28;20030;-60
2023/03/06 11:47:33;;;;;;;9.43;2.53;;;27.70;62.50;;;;;;5022436;28;20037;-60
2023/03/06 11:50:28;;;;;;;9.98;2.72;;;27.40;64.10;;;;;;5024250;28;20100;-61
2023/03/06 11:53:17;;;;;;;;;;;27.40;65.00;;;;;;5047619;28;20063;-60
2023/03/06 11:55:54;;;;;;;6.10;2.42;;;27.50;66.10;;;;;;5013657;28;19917;-61
2023/03/06 11:58:50;;;;;;;9.25;2.92;;;27.40;68.60;;;;;;5017974;28;20638;-60
2023/03/06 12:01:32;;;;;;;8.88;2.97;;;27.20;70.80;;;;;;5026626;28;20079;-60
2023/03/06 12:04:00;;;;;;;9.45;2.20;;;27.00;73.30;;;;;;5023773;28;20049;-60
2023/03/06 12:06:33;;;;;;;8.73;2.47;;;26.80;75.70;;;;;;5026427;28;20035;-60
2023/03/06 12:09:13;;;;;;;11.93;2.67;;;26.50;80.00;;;;;;5024973;28;20091;-60
2023/03/06 12:11:58;;;;;;;9.93;2.55;;;26.50;84.60;;;;;;5022584;28;20022;-61
2023/03/06 12:14:56;;;;;;;16.80;3.70;;;26.40;88.90;;;;;;5019331;28;20029;-60
2023/03/06 12:17:42;;;;;;;10.07;2.30;;;26.50;91.00;;;;;;5028210;28;20095;-60
2023/03/06 12:20:19;;;;;;;8.15;2.33;;;26.50;91.90;;;;;;5018954;28;20033;-60
2023/03/06 12:22:51;;;;;;;8.02;2.22;;;26.60;92.70;;;;;;5041479;28;20021;-60
2023/03/06 12:25:38;;;;;;;9.45;2.72;;;26.60;93.00;;;;;;5025303;28;20026;-61
2023/03/06 12:28:28;;;;;;;8.93;2.28;;;26.50;93.60;;;;;;5030025;28;20029;-60
2023/03/06 12:31:38;;;;;;;8.55;2.50;;;26.50;93.90;;;;;;5033451;28;20107;-60
2023/03/06 12:34:24;;;;;;;11.07;2.40;;;26.50;94.80;;;;;;5017105;28;20486;-62
2023/03/06 12:37:39;;;;;;;12.35;2.50;;;26.30;95.80;;;;;;5028795;28;20053;-60
2023/03/06 12:40:27;;;;;;;9.47;2.60;;;26.20;96.80;;;;;;4962450;28;20054;-61
2023/03/06 12:43:22;;;;;;;15.63;3.03;;;26.10;98.10;;;;;;5017734;28;20021;-59
2023/03/06 12:45:51;;;;;;;;;;;26.00;99.70;;;;;;5031300;28;20055;-60
2023/03/06 12:48:25;;;;;;;8.65;3.03;;;26.00;99.90;;;;;;5025582;28;19912;-60
2023/03/06 12:50:54;;;;;;;8.00;2.55;;;25.90;99.90;;;;;;5041896;28;20026;-60
2023/03/06 12:53:32;;;;;;;11.13;3.03;;;25.80;99.90;;;;;;5030752;28;20609;-60
2023/03/06 12:56:02;;;;;;;9.60;3.72;;;25.70;99.90;;;;;;5014726;28;20034;-60
2023/03/06 12:58:29;;;;;;;11.02;3.50;;;25.50;99.90;;;;;;5028229;28;20035;-60
2023/03/06 13:01:37;;;;;;;13.02;3.15;;;25.50;99.90;;;;;;5033953;28;20025;-60
2023/03/06 13:04:16;;;;;;;17.60;4.13;;;25.40;99.90;;;;;;5020237;28;20494;-60
2023/03/06 13:07:10;;;;;;;9.68;2.78;;;25.20;99.90;;;;;;5031288;28;20036;-60